sensor_id;sensor_type;location;lat;lon;timestamp;temperature;humidity
16271;DHT22;8243;49.048;8.396;2022-08-19T00:00:17;21.40;78.50
16271;DHT22;8243;49.048;8.396;2022-08-19T00:02:44;21.40;79.10
16271;DHT22;8243;49.048;8.396;2022-08-19T00:05:13;21.40;79.10
16271;DHT22;8243;49.048;8.396;2022-08-19T00:07:39;21.40;79.10
16271;DHT22;8243;49.048;8.396;2022-08-19T00:10:05;21.40;79.20
16271;DHT22;8243;49.048;8.396;2022-08-19T00:12:32;21.40;78.70
16271;DHT22;8243;49.048;8.396;2022-08-19T00:14:57;21.40;78.10
16271;DHT22;8243;49.048;8.396;2022-08-19T00:17:23;21.40;77.60
16271;DHT22;8243;49.048;8.396;2022-08-19T00:19:49;21.30;77.20
16271;DHT22;8243;49.048;8.396;2022-08-19T00:22:14;21.30;76.90
16271;DHT22;8243;49.048;8.396;2022-08-19T00:24:41;21.30;76.00
16271;DHT22;8243;49.048;8.396;2022-08-19T00:27:08;21.30;74.90
16271;DHT22;8243;49.048;8.396;2022-08-19T00:29:34;21.30;74.20
16271;DHT22;8243;49.048;8.396;2022-08-19T00:32:00;21.30;73.80
16271;DHT22;8243;49.048;8.396;2022-08-19T00:34:26;21.40;73.20
16271;DHT22;8243;49.048;8.396;2022-08-19T00:36:55;21.40;74.70
16271;DHT22;8243;49.048;8.396;2022-08-19T00:39:21;21.30;74.40
16271;DHT22;8243;49.048;8.396;2022-08-19T00:41:48;21.30;76.00
16271;DHT22;8243;49.048;8.396;2022-08-19T00:44:22;21.30;76.60
16271;DHT22;8243;49.048;8.396;2022-08-19T00:46:50;21.20;77.00
16271;DHT22;8243;49.048;8.396;2022-08-19T00:49:24;21.20;77.50
16271;DHT22;8243;49.048;8.396;2022-08-19T00:52:00;21.20;77.50
16271;DHT22;8243;49.048;8.396;2022-08-19T00:54:27;21.20;78.50
16271;DHT22;8243;49.048;8.396;2022-08-19T00:56:53;21.30;80.50
16271;DHT22;8243;49.048;8.396;2022-08-19T00:59:19;21.30;80.90
16271;DHT22;8243;49.048;8.396;2022-08-19T01:01:46;21.30;81.60
16271;DHT22;8243;49.048;8.396;2022-08-19T01:04:12;21.20;82.00
16271;DHT22;8243;49.048;8.396;2022-08-19T01:06:39;21.20;81.80
16271;DHT22;8243;49.048;8.396;2022-08-19T01:09:06;21.20;83.50
16271;DHT22;8243;49.048;8.396;2022-08-19T01:11:38;21.10;85.00
16271;DHT22;8243;49.048;8.396;2022-08-19T01:14:05;21.10;87.00
16271;DHT22;8243;49.048;8.396;2022-08-19T01:16:32;21.00;89.90
16271;DHT22;8243;49.048;8.396;2022-08-19T01:18:58;21.00;90.70
16271;DHT22;8243;49.048;8.396;2022-08-19T01:21:33;21.10;91.40
16271;DHT22;8243;49.048;8.396;2022-08-19T01:23:59;21.10;91.50
16271;DHT22;8243;49.048;8.396;2022-08-19T01:26:26;21.00;90.70
16271;DHT22;8243;49.048;8.396;2022-08-19T01:28:56;21.00;91.00
16271;DHT22;8243;49.048;8.396;2022-08-19T01:31:25;21.00;90.90
16271;DHT22;8243;49.048;8.396;2022-08-19T01:33:53;21.00;91.20
16271;DHT22;8243;49.048;8.396;2022-08-19T01:36:41;21.00;91.20
16271;DHT22;8243;49.048;8.396;2022-08-19T01:39:13;21.00;90.90
16271;DHT22;8243;49.048;8.396;2022-08-19T01:41:39;21.00;92.40
16271;DHT22;8243;49.048;8.396;2022-08-19T01:44:06;21.00;94.00
16271;DHT22;8243;49.048;8.396;2022-08-19T01:46:32;21.00;95.40
16271;DHT22;8243;49.048;8.396;2022-08-19T01:48:58;21.10;99.90
16271;DHT22;8243;49.048;8.396;2022-08-19T01:51:23;21.00;99.90
16271;DHT22;8243;49.048;8.396;2022-08-19T01:53:50;21.00;99.90
16271;DHT22;8243;49.048;8.396;2022-08-19T01:56:17;21.10;99.90
16271;DHT22;8243;49.048;8.396;2022-08-19T01:58:48;21.10;99.90
16271;DHT22;8243;49.048;8.396;2022-08-19T02:01:16;21.00;99.90
16271;DHT22;8243;49.048;8.396;2022-08-19T02:03:42;21.10;99.90
16271;DHT22;8243;49.048;8.396;2022-08-19T02:06:08;21.00;99.90
16271;DHT22;8243;49.048;8.396;2022-08-19T02:08:36;21.00;99.90
16271;DHT22;8243;49.048;8.396;2022-08-19T02:11:03;21.00;99.90
16271;DHT22;8243;49.048;8.396;2022-08-19T02:13:29;21.00;99.90
16271;DHT22;8243;49.048;8.396;2022-08-19T02:15:55;21.00;99.90
16271;DHT22;8243;49.048;8.396;2022-08-19T02:18:20;21.00;99.90
16271;DHT22;8243;49.048;8.396;2022-08-19T02:20:46;21.10;99.90
16271;DHT22;8243;49.048;8.396;2022-08-19T02:23:15;21.00;99.90
16271;DHT22;8243;49.048;8.396;2022-08-19T02:25:41;21.00;99.90
16271;DHT22;8243;49.048;8.396;2022-08-19T02:28:06;21.00;99.90
16271;DHT22;8243;49.048;8.396;2022-08-19T02:30:32;21.00;99.90
16271;DHT22;8243;49.048;8.396;2022-08-19T02:32:58;21.00;99.90
16271;DHT22;8243;49.048;8.396;2022-08-19T02:38:30;21.10;99.90
16271;DHT22;8243;49.048;8.396;2022-08-19T02:41:11;21.00;99.90
16271;DHT22;8243;49.048;8.396;2022-08-19T02:43:37;21.00;99.90
16271;DHT22;8243;49.048;8.396;2022-08-19T02:46:22;21.00;99.90
16271;DHT22;8243;49.048;8.396;2022-08-19T02:48:52;21.00;99.90
16271;DHT22;8243;49.048;8.396;2022-08-19T02:51:28;20.90;99.90
16271;DHT22;8243;49.048;8.396;2022-08-19T02:53:54;20.90;99.90
16271;DHT22;8243;49.048;8.396;2022-08-19T02:56:21;20.90;99.90
16271;DHT22;8243;49.048;8.396;2022-08-19T02:58:47;20.90;99.90
16271;DHT22;8243;49.048;8.396;2022-08-19T03:01:22;20.80;99.90
16271;DHT22;8243;49.048;8.396;2022-08-19T03:03:48;20.90;99.90
16271;DHT22;8243;49.048;8.396;2022-08-19T03:06:15;20.80;99.90
16271;DHT22;8243;49.048;8.396;2022-08-19T03:08:43;20.70;99.90
16271;DHT22;8243;49.048;8.396;2022-08-19T03:11:18;20.60;99.90
16271;DHT22;8243;49.048;8.396;2022-08-19T03:13:44;20.60;99.90
16271;DHT22;8243;49.048;8.396;2022-08-19T03:16:11;20.60;99.90
16271;DHT22;8243;49.048;8.396;2022-08-19T03:18:37;20.60;99.90
16271;DHT22;8243;49.048;8.396;2022-08-19T03:21:03;20.60;99.90
16271;DHT22;8243;49.048;8.396;2022-08-19T03:23:28;20.60;99.90
16271;DHT22;8243;49.048;8.396;2022-08-19T03:25:54;20.50;99.90
16271;DHT22;8243;49.048;8.396;2022-08-19T03:28:21;20.60;99.90
16271;DHT22;8243;49.048;8.396;2022-08-19T03:31:00;20.60;99.90
16271;DHT22;8243;49.048;8.396;2022-08-19T03:33:27;20.50;99.90
16271;DHT22;8243;49.048;8.396;2022-08-19T03:38:39;20.60;99.90
16271;DHT22;8243;49.048;8.396;2022-08-19T03:41:11;20.50;99.90
16271;DHT22;8243;49.048;8.396;2022-08-19T03:43:38;20.50;99.90
16271;DHT22;8243;49.048;8.396;2022-08-19T03:46:10;20.50;99.90
16271;DHT22;8243;49.048;8.396;2022-08-19T03:48:37;20.50;99.90
16271;DHT22;8243;49.048;8.396;2022-08-19T03:51:04;20.50;99.90
16271;DHT22;8243;49.048;8.396;2022-08-19T03:53:31;20.50;99.90
16271;DHT22;8243;49.048;8.396;2022-08-19T03:55:57;20.50;99.90
16271;DHT22;8243;49.048;8.396;2022-08-19T03:58:26;20.50;99.90
16271;DHT22;8243;49.048;8.396;2022-08-19T04:00:55;20.40;99.90
16271;DHT22;8243;49.048;8.396;2022-08-19T04:03:21;20.40;99.90
16271;DHT22;8243;49.048;8.396;2022-08-19T04:05:47;20.40;99.90
16271;DHT22;8243;49.048;8.396;2022-08-19T04:08:13;20.40;99.90
16271;DHT22;8243;49.048;8.396;2022-08-19T04:10:39;20.40;99.90
16271;DHT22;8243;49.048;8.396;2022-08-19T04:13:05;20.30;99.90
16271;DHT22;8243;49.048;8.396;2022-08-19T04:15:32;20.30;99.90
16271;DHT22;8243;49.048;8.396;2022-08-19T04:18:05;20.30;99.90
16271;DHT22;8243;49.048;8.396;2022-08-19T04:20:37;20.20;99.90
16271;DHT22;8243;49.048;8.396;2022-08-19T04:23:03;20.20;99.90
16271;DHT22;8243;49.048;8.396;2022-08-19T04:25:38;20.30;99.90
16271;DHT22;8243;49.048;8.396;2022-08-19T04:28:04;20.20;99.90
16271;DHT22;8243;49.048;8.396;2022-08-19T04:30:30;20.20;99.90
16271;DHT22;8243;49.048;8.396;2022-08-19T04:32:55;20.20;99.90
16271;DHT22;8243;49.048;8.396;2022-08-19T04:35:21;20.20;99.90
16271;DHT22;8243;49.048;8.396;2022-08-19T04:37:46;20.30;99.90
16271;DHT22;8243;49.048;8.396;2022-08-19T04:40:12;20.30;99.90
16271;DHT22;8243;49.048;8.396;2022-08-19T04:42:56;20.30;99.90
16271;DHT22;8243;49.048;8.396;2022-08-19T04:45:22;20.30;99.90
16271;DHT22;8243;49.048;8.396;2022-08-19T04:47:47;20.40;99.90
16271;DHT22;8243;49.048;8.396;2022-08-19T04:50:14;20.40;99.90
16271;DHT22;8243;49.048;8.396;2022-08-19T04:52:39;20.40;99.90
16271;DHT22;8243;49.048;8.396;2022-08-19T04:55:09;20.40;99.90
16271;DHT22;8243;49.048;8.396;2022-08-19T04:57:35;20.50;99.90
16271;DHT22;8243;49.048;8.396;2022-08-19T05:00:07;20.60;99.90
16271;DHT22;8243;49.048;8.396;2022-08-19T05:02:33;20.60;99.90
16271;DHT22;8243;49.048;8.396;2022-08-19T05:04:59;20.70;99.90
16271;DHT22;8243;49.048;8.396;2022-08-19T05:07:26;20.70;99.90
16271;DHT22;8243;49.048;8.396;2022-08-19T05:09:52;20.80;99.90
16271;DHT22;8243;49.048;8.396;2022-08-19T05:12:18;20.90;99.90
16271;DHT22;8243;49.048;8.396;2022-08-19T05:14:45;20.90;99.90
16271;DHT22;8243;49.048;8.396;2022-08-19T05:17:12;21.00;99.90
16271;DHT22;8243;49.048;8.396;2022-08-19T05:19:38;21.10;99.90
16271;DHT22;8243;49.048;8.396;2022-08-19T05:22:22;21.20;99.90
16271;DHT22;8243;49.048;8.396;2022-08-19T05:24:58;21.20;99.90
16271;DHT22;8243;49.048;8.396;2022-08-19T05:27:24;21.30;99.90
16271;DHT22;8243;49.048;8.396;2022-08-19T05:29:50;21.40;99.90
16271;DHT22;8243;49.048;8.396;2022-08-19T05:32:15;21.40;99.90
16271;DHT22;8243;49.048;8.396;2022-08-19T05:34:41;21.40;99.90
16271;DHT22;8243;49.048;8.396;2022-08-19T05:37:07;21.40;99.90
16271;DHT22;8243;49.048;8.396;2022-08-19T05:39:35;21.60;99.90
16271;DHT22;8243;49.048;8.396;2022-08-19T05:42:04;21.70;99.90
16271;DHT22;8243;49.048;8.396;2022-08-19T05:44:35;21.80;99.90
16271;DHT22;8243;49.048;8.396;2022-08-19T05:47:03;21.90;99.30
16271;DHT22;8243;49.048;8.396;2022-08-19T05:49:30;22.00;98.60
16271;DHT22;8243;49.048;8.396;2022-08-19T05:51:57;22.10;96.30
16271;DHT22;8243;49.048;8.396;2022-08-19T05:54:23;22.00;92.90
16271;DHT22;8243;49.048;8.396;2022-08-19T05:56:50;22.00;92.70
16271;DHT22;8243;49.048;8.396;2022-08-19T05:59:17;21.90;92.20
16271;DHT22;8243;49.048;8.396;2022-08-19T06:01:45;21.90;92.30
16271;DHT22;8243;49.048;8.396;2022-08-19T06:04:12;21.80;91.80
16271;DHT22;8243;49.048;8.396;2022-08-19T06:06:39;21.70;91.60
16271;DHT22;8243;49.048;8.396;2022-08-19T06:09:06;21.80;91.90
16271;DHT22;8243;49.048;8.396;2022-08-19T06:11:36;21.80;91.30
16271;DHT22;8243;49.048;8.396;2022-08-19T06:14:05;21.90;90.20
16271;DHT22;8243;49.048;8.396;2022-08-19T06:16:37;21.80;90.40
16271;DHT22;8243;49.048;8.396;2022-08-19T06:19:06;21.90;89.70
16271;DHT22;8243;49.048;8.396;2022-08-19T06:21:33;21.90;86.40
16271;DHT22;8243;49.048;8.396;2022-08-19T06:23:59;21.90;85.20
16271;DHT22;8243;49.048;8.396;2022-08-19T06:26:26;22.00;84.60
16271;DHT22;8243;49.048;8.396;2022-08-19T06:28:52;21.90;83.60
16271;DHT22;8243;49.048;8.396;2022-08-19T06:31:21;22.00;83.00
16271;DHT22;8243;49.048;8.396;2022-08-19T06:33:47;22.10;83.60
16271;DHT22;8243;49.048;8.396;2022-08-19T06:36:22;22.10;82.10
16271;DHT22;8243;49.048;8.396;2022-08-19T06:38:57;22.20;79.90
16271;DHT22;8243;49.048;8.396;2022-08-19T06:41:24;22.30;77.70
16271;DHT22;8243;49.048;8.396;2022-08-19T06:43:50;22.40;75.90
16271;DHT22;8243;49.048;8.396;2022-08-19T06:46:17;22.50;74.60
16271;DHT22;8243;49.048;8.396;2022-08-19T06:48:44;22.50;74.10
16271;DHT22;8243;49.048;8.396;2022-08-19T06:51:10;22.50;74.10
16271;DHT22;8243;49.048;8.396;2022-08-19T06:53:35;22.50;72.60
16271;DHT22;8243;49.048;8.396;2022-08-19T06:56:01;22.50;72.40
16271;DHT22;8243;49.048;8.396;2022-08-19T06:58:31;22.60;71.90
16271;DHT22;8243;49.048;8.396;2022-08-19T07:01:03;22.70;69.40
16271;DHT22;8243;49.048;8.396;2022-08-19T07:03:31;22.90;68.60
16271;DHT22;8243;49.048;8.396;2022-08-19T07:06:02;22.90;65.90
16271;DHT22;8243;49.048;8.396;2022-08-19T07:08:27;23.10;66.70
16271;DHT22;8243;49.048;8.396;2022-08-19T07:10:53;23.30;63.50
16271;DHT22;8243;49.048;8.396;2022-08-19T07:13:18;23.40;60.60
16271;DHT22;8243;49.048;8.396;2022-08-19T07:15:44;23.60;60.30
16271;DHT22;8243;49.048;8.396;2022-08-19T07:18:11;23.70;58.40
16271;DHT22;8243;49.048;8.396;2022-08-19T07:20:37;23.80;54.80
16271;DHT22;8243;49.048;8.396;2022-08-19T07:23:03;24.00;55.00
16271;DHT22;8243;49.048;8.396;2022-08-19T07:25:29;24.00;53.50
16271;DHT22;8243;49.048;8.396;2022-08-19T07:27:55;24.20;51.90
16271;DHT22;8243;49.048;8.396;2022-08-19T07:30:20;24.40;50.60
16271;DHT22;8243;49.048;8.396;2022-08-19T07:32:47;24.70;46.90
16271;DHT22;8243;49.048;8.396;2022-08-19T07:35:13;24.60;47.10
16271;DHT22;8243;49.048;8.396;2022-08-19T07:37:39;24.70;44.80
16271;DHT22;8243;49.048;8.396;2022-08-19T07:40:09;24.70;44.00
16271;DHT22;8243;49.048;8.396;2022-08-19T07:42:35;24.80;44.90
16271;DHT22;8243;49.048;8.396;2022-08-19T07:45:01;25.00;43.20
16271;DHT22;8243;49.048;8.396;2022-08-19T07:47:26;24.80;42.50
16271;DHT22;8243;49.048;8.396;2022-08-19T07:49:53;24.90;43.70
16271;DHT22;8243;49.048;8.396;2022-08-19T07:52:19;25.00;42.00
16271;DHT22;8243;49.048;8.396;2022-08-19T07:54:45;25.10;39.60
16271;DHT22;8243;49.048;8.396;2022-08-19T07:57:10;25.10;39.50
16271;DHT22;8243;49.048;8.396;2022-08-19T07:59:36;25.10;39.80
16271;DHT22;8243;49.048;8.396;2022-08-19T08:02:02;25.10;40.40
16271;DHT22;8243;49.048;8.396;2022-08-19T08:04:29;24.90;40.30
16271;DHT22;8243;49.048;8.396;2022-08-19T08:07:13;24.90;40.40
16271;DHT22;8243;49.048;8.396;2022-08-19T08:09:58;25.00;40.70
16271;DHT22;8243;49.048;8.396;2022-08-19T08:12:27;24.70;40.70
16271;DHT22;8243;49.048;8.396;2022-08-19T08:15:00;24.60;42.80
16271;DHT22;8243;49.048;8.396;2022-08-19T08:17:29;24.80;42.90
16271;DHT22;8243;49.048;8.396;2022-08-19T08:19:55;24.60;41.50
16271;DHT22;8243;49.048;8.396;2022-08-19T08:22:23;24.50;42.10
16271;DHT22;8243;49.048;8.396;2022-08-19T08:25:14;24.60;42.00
16271;DHT22;8243;49.048;8.396;2022-08-19T08:27:43;24.60;39.90
16271;DHT22;8243;49.048;8.396;2022-08-19T08:30:11;24.70;41.10
16271;DHT22;8243;49.048;8.396;2022-08-19T08:32:39;24.90;40.00
16271;DHT22;8243;49.048;8.396;2022-08-19T08:35:06;25.40;39.90
16271;DHT22;8243;49.048;8.396;2022-08-19T08:37:33;25.80;33.70
16271;DHT22;8243;49.048;8.396;2022-08-19T08:39:58;25.60;34.20
16271;DHT22;8243;49.048;8.396;2022-08-19T08:42:31;25.50;35.60
16271;DHT22;8243;49.048;8.396;2022-08-19T08:45:08;26.00;35.70
16271;DHT22;8243;49.048;8.396;2022-08-19T08:47:43;26.50;31.90
16271;DHT22;8243;49.048;8.396;2022-08-19T08:50:18;26.30;29.30
16271;DHT22;8243;49.048;8.396;2022-08-19T08:52:47;26.50;30.40
16271;DHT22;8243;49.048;8.396;2022-08-19T08:55:16;27.10;27.20
16271;DHT22;8243;49.048;8.396;2022-08-19T09:00:38;27.40;26.00
16271;DHT22;8243;49.048;8.396;2022-08-19T09:03:17;28.30;23.60
16271;DHT22;8243;49.048;8.396;2022-08-19T09:06:02;29.30;21.40
16271;DHT22;8243;49.048;8.396;2022-08-19T09:11:08;29.80;18.80
16271;DHT22;8243;49.048;8.396;2022-08-19T09:16:30;28.90;18.40
16271;DHT22;8243;49.048;8.396;2022-08-19T09:19:03;27.50;21.00
16271;DHT22;8243;49.048;8.396;2022-08-19T09:21:29;27.90;22.20
16271;DHT22;8243;49.048;8.396;2022-08-19T09:23:55;28.10;19.90
16271;DHT22;8243;49.048;8.396;2022-08-19T09:26:22;28.20;20.20
16271;DHT22;8243;49.048;8.396;2022-08-19T09:28:50;27.20;21.10
16271;DHT22;8243;49.048;8.396;2022-08-19T09:31:22;27.20;22.50
16271;DHT22;8243;49.048;8.396;2022-08-19T09:34:05;28.70;19.90
16271;DHT22;8243;49.048;8.396;2022-08-19T09:36:51;30.10;17.30
16271;DHT22;8243;49.048;8.396;2022-08-19T09:39:20;30.30;15.70
16271;DHT22;8243;49.048;8.396;2022-08-19T09:41:46;29.40;17.10
16271;DHT22;8243;49.048;8.396;2022-08-19T09:44:11;29.70;15.90
16271;DHT22;8243;49.048;8.396;2022-08-19T09:46:38;29.90;15.40
16271;DHT22;8243;49.048;8.396;2022-08-19T09:49:03;29.40;15.30
16271;DHT22;8243;49.048;8.396;2022-08-19T09:51:31;28.60;17.20
16271;DHT22;8243;49.048;8.396;2022-08-19T09:54:04;29.40;16.30
16271;DHT22;8243;49.048;8.396;2022-08-19T09:56:31;29.70;15.70
16271;DHT22;8243;49.048;8.396;2022-08-19T09:58:59;29.60;15.70
16271;DHT22;8243;49.048;8.396;2022-08-19T10:01:27;28.90;16.20
16271;DHT22;8243;49.048;8.396;2022-08-19T10:03:54;28.20;17.20
16271;DHT22;8243;49.048;8.396;2022-08-19T10:06:23;27.90;18.00
16271;DHT22;8243;49.048;8.396;2022-08-19T10:08:49;27.90;18.00
16271;DHT22;8243;49.048;8.396;2022-08-19T10:11:18;28.00;18.20
16271;DHT22;8243;49.048;8.396;2022-08-19T10:13:44;28.80;17.40
16271;DHT22;8243;49.048;8.396;2022-08-19T10:16:16;28.80;16.60
16271;DHT22;8243;49.048;8.396;2022-08-19T10:18:43;28.10;17.10
16271;DHT22;8243;49.048;8.396;2022-08-19T10:21:15;28.30;16.30
16271;DHT22;8243;49.048;8.396;2022-08-19T10:23:44;28.60;15.90
16271;DHT22;8243;49.048;8.396;2022-08-19T10:26:12;29.20;16.20
16271;DHT22;8243;49.048;8.396;2022-08-19T10:28:38;29.80;14.40
16271;DHT22;8243;49.048;8.396;2022-08-19T10:31:07;29.70;14.50
16271;DHT22;8243;49.048;8.396;2022-08-19T10:33:33;29.20;15.40
16271;DHT22;8243;49.048;8.396;2022-08-19T10:36:01;29.30;14.60
16271;DHT22;8243;49.048;8.396;2022-08-19T10:38:27;29.20;15.10
16271;DHT22;8243;49.048;8.396;2022-08-19T10:40:54;29.40;14.40
16271;DHT22;8243;49.048;8.396;2022-08-19T10:43:19;29.20;14.50
16271;DHT22;8243;49.048;8.396;2022-08-19T10:45:52;28.60;15.90
16271;DHT22;8243;49.048;8.396;2022-08-19T10:48:19;29.20;15.30
16271;DHT22;8243;49.048;8.396;2022-08-19T10:50:44;29.80;15.40
16271;DHT22;8243;49.048;8.396;2022-08-19T10:53:28;30.20;14.60
16271;DHT22;8243;49.048;8.396;2022-08-19T10:55:54;30.30;13.20
16271;DHT22;8243;49.048;8.396;2022-08-19T10:58:38;30.70;12.90
16271;DHT22;8243;49.048;8.396;2022-08-19T11:01:03;31.60;11.80
16271;DHT22;8243;49.048;8.396;2022-08-19T11:03:29;31.50;11.30
16271;DHT22;8243;49.048;8.396;2022-08-19T11:06:05;30.50;11.60
16271;DHT22;8243;49.048;8.396;2022-08-19T11:08:31;30.00;13.20
16271;DHT22;8243;49.048;8.396;2022-08-19T11:11:00;29.80;13.90
16271;DHT22;8243;49.048;8.396;2022-08-19T11:13:31;30.10;12.80
16271;DHT22;8243;49.048;8.396;2022-08-19T11:16:05;30.10;11.90
16271;DHT22;8243;49.048;8.396;2022-08-19T11:18:32;29.90;13.30
16271;DHT22;8243;49.048;8.396;2022-08-19T11:21:10;29.80;12.00
16271;DHT22;8243;49.048;8.396;2022-08-19T11:23:36;30.10;12.50
16271;DHT22;8243;49.048;8.396;2022-08-19T11:26:02;30.60;12.00
16271;DHT22;8243;49.048;8.396;2022-08-19T11:28:28;30.50;11.50
16271;DHT22;8243;49.048;8.396;2022-08-19T11:30:53;30.30;12.10
16271;DHT22;8243;49.048;8.396;2022-08-19T11:33:19;30.90;11.00
16271;DHT22;8243;49.048;8.396;2022-08-19T11:35:44;30.70;11.00
16271;DHT22;8243;49.048;8.396;2022-08-19T11:38:10;30.30;11.70
16271;DHT22;8243;49.048;8.396;2022-08-19T11:40:36;30.10;11.70
16271;DHT22;8243;49.048;8.396;2022-08-19T11:43:03;29.70;12.50
16271;DHT22;8243;49.048;8.396;2022-08-19T11:45:28;29.70;12.90
16271;DHT22;8243;49.048;8.396;2022-08-19T11:47:55;30.20;11.70
16271;DHT22;8243;49.048;8.396;2022-08-19T11:50:21;30.40;10.80
16271;DHT22;8243;49.048;8.396;2022-08-19T11:52:48;30.50;10.30
16271;DHT22;8243;49.048;8.396;2022-08-19T11:55:15;30.80;10.30
16271;DHT22;8243;49.048;8.396;2022-08-19T11:57:41;30.90;9.60
16271;DHT22;8243;49.048;8.396;2022-08-19T12:00:09;30.70;10.00
16271;DHT22;8243;49.048;8.396;2022-08-19T12:02:37;30.30;10.60
16271;DHT22;8243;49.048;8.396;2022-08-19T12:05:03;29.90;10.70
16271;DHT22;8243;49.048;8.396;2022-08-19T12:07:28;29.40;12.30
16271;DHT22;8243;49.048;8.396;2022-08-19T12:09:57;29.50;12.00
16271;DHT22;8243;49.048;8.396;2022-08-19T12:12:22;29.30;12.20
16271;DHT22;8243;49.048;8.396;2022-08-19T12:14:49;29.20;12.10
16271;DHT22;8243;49.048;8.396;2022-08-19T12:17:25;28.50;13.10
16271;DHT22;8243;49.048;8.396;2022-08-19T12:19:52;28.30;13.70
16271;DHT22;8243;49.048;8.396;2022-08-19T12:22:17;28.60;13.50
16271;DHT22;8243;49.048;8.396;2022-08-19T12:24:43;28.50;13.20
16271;DHT22;8243;49.048;8.396;2022-08-19T12:27:09;28.70;12.70
16271;DHT22;8243;49.048;8.396;2022-08-19T12:29:34;29.00;12.70
16271;DHT22;8243;49.048;8.396;2022-08-19T12:32:00;29.10;12.10
16271;DHT22;8243;49.048;8.396;2022-08-19T12:34:29;29.00;11.80
16271;DHT22;8243;49.048;8.396;2022-08-19T12:37:00;29.00;12.30
16271;DHT22;8243;49.048;8.396;2022-08-19T12:39:26;29.20;12.30
16271;DHT22;8243;49.048;8.396;2022-08-19T12:41:52;29.40;11.80
16271;DHT22;8243;49.048;8.396;2022-08-19T12:44:17;29.70;11.10
16271;DHT22;8243;49.048;8.396;2022-08-19T12:46:43;29.80;10.50
16271;DHT22;8243;49.048;8.396;2022-08-19T12:49:09;30.10;10.50
16271;DHT22;8243;49.048;8.396;2022-08-19T12:51:35;30.30;9.80
16271;DHT22;8243;49.048;8.396;2022-08-19T12:54:01;30.70;9.50
16271;DHT22;8243;49.048;8.396;2022-08-19T12:56:27;30.60;9.20
16271;DHT22;8243;49.048;8.396;2022-08-19T12:58:52;30.50;10.10
16271;DHT22;8243;49.048;8.396;2022-08-19T13:01:18;30.00;9.20
16271;DHT22;8243;49.048;8.396;2022-08-19T13:03:45;29.70;10.00
16271;DHT22;8243;49.048;8.396;2022-08-19T13:06:11;29.50;10.20
16271;DHT22;8243;49.048;8.396;2022-08-19T13:08:38;29.60;10.60
16271;DHT22;8243;49.048;8.396;2022-08-19T13:11:12;29.80;9.90
16271;DHT22;8243;49.048;8.396;2022-08-19T13:13:40;29.40;9.80
16271;DHT22;8243;49.048;8.396;2022-08-19T13:16:07;29.60;10.20
16271;DHT22;8243;49.048;8.396;2022-08-19T13:18:33;29.30;9.70
16271;DHT22;8243;49.048;8.396;2022-08-19T13:21:03;29.00;9.80
16271;DHT22;8243;49.048;8.396;2022-08-19T13:23:29;28.80;9.80
16271;DHT22;8243;49.048;8.396;2022-08-19T13:26:00;28.80;9.00
16271;DHT22;8243;49.048;8.396;2022-08-19T13:28:26;29.00;9.00
16271;DHT22;8243;49.048;8.396;2022-08-19T13:30:52;29.20;8.10
16271;DHT22;8243;49.048;8.396;2022-08-19T13:33:36;29.40;6.90
16271;DHT22;8243;49.048;8.396;2022-08-19T13:36:02;30.00;6.60
16271;DHT22;8243;49.048;8.396;2022-08-19T13:38:31;30.50;5.60
16271;DHT22;8243;49.048;8.396;2022-08-19T13:41:04;30.70;4.70
16271;DHT22;8243;49.048;8.396;2022-08-19T13:43:30;31.10;3.90
16271;DHT22;8243;49.048;8.396;2022-08-19T13:45:55;31.00;2.30
16271;DHT22;8243;49.048;8.396;2022-08-19T13:48:22;30.70;2.30
16271;DHT22;8243;49.048;8.396;2022-08-19T13:50:48;30.90;3.40
16271;DHT22;8243;49.048;8.396;2022-08-19T13:53:14;31.20;3.30
16271;DHT22;8243;49.048;8.396;2022-08-19T13:55:41;31.70;2.80
16271;DHT22;8243;49.048;8.396;2022-08-19T13:58:08;31.60;2.70
16271;DHT22;8243;49.048;8.396;2022-08-19T14:00:38;31.20;4.50
16271;DHT22;8243;49.048;8.396;2022-08-19T14:03:04;31.00;5.30
16271;DHT22;8243;49.048;8.396;2022-08-19T14:05:31;31.20;4.30
16271;DHT22;8243;49.048;8.396;2022-08-19T14:07:57;30.60;4.50
16271;DHT22;8243;49.048;8.396;2022-08-19T14:10:24;30.50;5.10
16271;DHT22;8243;49.048;8.396;2022-08-19T14:12:54;30.70;5.00
16271;DHT22;8243;49.048;8.396;2022-08-19T14:15:20;30.60;4.50
16271;DHT22;8243;49.048;8.396;2022-08-19T14:17:46;30.30;5.00
16271;DHT22;8243;49.048;8.396;2022-08-19T14:20:14;30.20;4.90
16271;DHT22;8243;49.048;8.396;2022-08-19T14:22:41;30.50;5.10
16271;DHT22;8243;49.048;8.396;2022-08-19T14:25:10;30.70;4.80
16271;DHT22;8243;49.048;8.396;2022-08-19T14:27:39;31.00;5.10
16271;DHT22;8243;49.048;8.396;2022-08-19T14:30:07;31.00;4.70
16271;DHT22;8243;49.048;8.396;2022-08-19T14:32:34;31.00;4.60
16271;DHT22;8243;49.048;8.396;2022-08-19T14:35:01;31.10;3.60
16271;DHT22;8243;49.048;8.396;2022-08-19T14:37:26;31.00;4.30
16271;DHT22;8243;49.048;8.396;2022-08-19T14:39:52;31.00;4.40
16271;DHT22;8243;49.048;8.396;2022-08-19T14:42:18;31.00;4.30
16271;DHT22;8243;49.048;8.396;2022-08-19T14:44:44;30.90;4.70
16271;DHT22;8243;49.048;8.396;2022-08-19T14:47:10;30.70;4.40
16271;DHT22;8243;49.048;8.396;2022-08-19T14:49:36;30.60;4.70
16271;DHT22;8243;49.048;8.396;2022-08-19T14:52:03;30.50;5.10
16271;DHT22;8243;49.048;8.396;2022-08-19T14:54:29;30.30;4.90
16271;DHT22;8243;49.048;8.396;2022-08-19T14:56:54;30.20;5.10
16271;DHT22;8243;49.048;8.396;2022-08-19T14:59:20;30.20;5.30
16271;DHT22;8243;49.048;8.396;2022-08-19T15:01:45;30.30;5.70
16271;DHT22;8243;49.048;8.396;2022-08-19T15:04:11;30.40;5.60
16271;DHT22;8243;49.048;8.396;2022-08-19T15:06:37;30.30;5.70
16271;DHT22;8243;49.048;8.396;2022-08-19T15:09:03;30.50;6.00
16271;DHT22;8243;49.048;8.396;2022-08-19T15:11:29;30.40;5.50
16271;DHT22;8243;49.048;8.396;2022-08-19T15:13:58;30.20;5.50
16271;DHT22;8243;49.048;8.396;2022-08-19T15:16:24;30.10;6.60
16271;DHT22;8243;49.048;8.396;2022-08-19T15:18:53;30.10;6.50
16271;DHT22;8243;49.048;8.396;2022-08-19T15:21:19;30.10;5.80
16271;DHT22;8243;49.048;8.396;2022-08-19T15:23:46;30.00;6.70
16271;DHT22;8243;49.048;8.396;2022-08-19T15:26:14;30.10;6.60
16271;DHT22;8243;49.048;8.396;2022-08-19T15:28:40;29.90;6.90
16271;DHT22;8243;49.048;8.396;2022-08-19T15:31:07;29.80;7.00
16271;DHT22;8243;49.048;8.396;2022-08-19T15:33:33;29.70;6.50
16271;DHT22;8243;49.048;8.396;2022-08-19T15:36:03;29.70;7.20
16271;DHT22;8243;49.048;8.396;2022-08-19T15:38:31;29.80;7.10
16271;DHT22;8243;49.048;8.396;2022-08-19T15:40:59;29.80;6.60
16271;DHT22;8243;49.048;8.396;2022-08-19T15:43:44;29.90;7.10
16271;DHT22;8243;49.048;8.396;2022-08-19T15:46:10;29.70;6.70
16271;DHT22;8243;49.048;8.396;2022-08-19T15:48:36;29.70;6.90
16271;DHT22;8243;49.048;8.396;2022-08-19T15:51:02;29.90;7.70
16271;DHT22;8243;49.048;8.396;2022-08-19T15:53:28;29.70;6.80
16271;DHT22;8243;49.048;8.396;2022-08-19T15:55:53;29.60;6.80
16271;DHT22;8243;49.048;8.396;2022-08-19T15:58:19;29.70;6.80
16271;DHT22;8243;49.048;8.396;2022-08-19T16:01:06;29.90;6.90
16271;DHT22;8243;49.048;8.396;2022-08-19T16:03:52;29.90;6.50
16271;DHT22;8243;49.048;8.396;2022-08-19T16:06:39;29.80;6.50
16271;DHT22;8243;49.048;8.396;2022-08-19T16:09:04;29.80;6.70